Time;durP1;ratioP1;P1;durP2;ratioP2;P2;SDS_P1;SDS_P2;PMS_P1;PMS_P2;Temp;Humidity;BMP_temperature;BMP_pressure;BME280_temperature;BME280_humidity;BME280_pressure;Samples;Min_cycle;Max_cycle;Signal;HPM_P1;HPM_P2
2021/08/14 00:00:31;;;;;;;10.73;7.20;;;;;;;18.85;72.69;93813.28;5090795;28;20048;-85
2021/08/14 00:02:58;;;;;;;12.63;6.75;;;;;;;18.91;72.00;93814.88;5091146;28;20867;-85
2021/08/14 00:05:25;;;;;;;9.63;7.13;;;;;;;18.67;72.94;93792.56;5091329;28;20043;-85
2021/08/14 00:07:51;;;;;;;10.00;7.03;;;;;;;18.75;73.34;93817.34;5091185;28;20040;-85
2021/08/14 00:10:20;;;;;;;10.00;7.68;;;;;;;18.54;75.49;93814.56;5090683;28;20063;-85
2021/08/14 00:12:47;;;;;;;10.80;6.97;;;;;;;18.60;73.99;93819.81;5090894;28;20485;-85
2021/08/14 00:15:13;;;;;;;10.48;7.00;;;;;;;18.62;73.48;93817.75;5091466;28;20047;-85
2021/08/14 00:17:40;;;;;;;11.80;7.00;;;;;;;18.59;73.92;93808.59;5091351;28;20098;-85
2021/08/14 00:20:08;;;;;;;12.73;7.40;;;;;;;18.33;73.94;93784.16;5091116;28;20056;-85
2021/08/14 00:22:35;;;;;;;11.77;7.13;;;;;;;18.50;74.71;93823.88;5090900;28;20059;-85
2021/08/14 00:25:02;;;;;;;11.40;7.15;;;;;;;18.50;74.49;93833.47;5090644;28;20040;-85
2021/08/14 00:27:30;;;;;;;10.95;7.55;;;;;;;18.43;74.05;93824.03;5090817;28;20044;-85
2021/08/14 00:29:57;;;;;;;11.27;6.60;;;;;;;18.63;73.02;93842.72;5090556;28;20532;-85
2021/08/14 00:32:24;;;;;;;12.43;6.72;;;;;;;18.51;73.49;93837.66;5090730;28;20055;-85
2021/08/14 00:34:51;;;;;;;19.17;7.30;;;;;;;18.41;73.40;93826.13;5090730;28;20052;-85
2021/08/14 00:37:18;;;;;;;16.13;7.45;;;;;;;18.46;73.75;93854.00;5090395;28;20059;-85
2021/08/14 00:39:44;;;;;;;13.30;6.93;;;;;;;18.41;73.72;93846.94;5090112;28;20048;-85
2021/08/14 00:42:11;;;;;;;15.77;7.55;;;;;;;18.36;73.29;93839.06;5090273;28;20073;-85
2021/08/14 00:44:40;;;;;;;11.38;7.65;;;;;;;18.39;73.81;93846.38;5090131;28;20114;-85
2021/08/14 00:47:07;;;;;;;11.23;7.07;;;;;;;18.36;73.88;93852.06;5090202;28;20048;-85
2021/08/14 00:49:34;;;;;;;11.13;6.53;;;;;;;18.38;74.00;93857.03;5090476;28;20048;-85
2021/08/14 00:52:01;;;;;;;9.90;7.03;;;;;;;18.35;73.99;93853.09;5090187;28;20044;-85
2021/08/14 00:54:28;;;;;;;12.07;7.07;;;;;;;18.36;73.67;93852.06;5090268;28;20639;-85
2021/08/14 00:56:56;;;;;;;12.35;7.38;;;;;;;18.38;73.71;93847.41;5089929;28;20634;-85
2021/08/14 00:59:25;;;;;;;12.00;6.55;;;;;;;18.27;73.63;93843.09;5089474;28;20052;-85
2021/08/14 01:01:54;;;;;;;9.95;6.65;;;;;;;18.33;73.71;93844.72;5090378;28;20074;-85
2021/08/14 01:04:22;;;;;;;9.35;6.65;;;;;;;18.36;73.53;93840.88;5089991;28;20404;-85
2021/08/14 01:06:49;;;;;;;11.70;7.57;;;;;;;18.29;73.59;93834.03;5090198;28;20106;-85
2021/08/14 01:09:16;;;;;;;8.88;6.72;;;;;;;18.32;73.96;93847.59;5091667;28;20052;-85
2021/08/14 01:11:43;;;;;;;9.57;6.68;;;;;;;18.28;73.84;93845.47;5092149;28;20044;-84
2021/08/14 01:14:13;;;;;;;9.35;6.47;;;;;;;18.24;73.79;93843.59;5089682;28;20047;-85
2021/08/14 01:16:40;;;;;;;11.57;6.80;;;;;;;18.20;74.63;93845.91;5090086;28;20142;-85
2021/08/14 01:19:09;;;;;;;9.88;7.05;;;;;;;18.20;74.41;93843.31;5089889;28;20047;-85
2021/08/14 01:21:35;;;;;;;13.13;7.03;;;;;;;18.07;75.49;93839.25;5089756;28;20044;-85
2021/08/14 01:24:04;;;;;;;14.90;7.93;;;;;;;18.06;75.11;93842.88;5089538;28;20489;-85
2021/08/14 01:26:32;;;;;;;10.20;7.32;;;;;;;18.10;74.75;93840.56;5089876;28;20052;-85
2021/08/14 01:29:01;;;;;;;10.95;6.97;;;;;;;18.07;74.72;93830.63;5089339;28;20431;-85
2021/08/14 01:31:27;;;;;;;11.55;7.22;;;;;;;17.99;74.72;93824.00;5089327;28;20059;-85
2021/08/14 01:33:56;;;;;;;11.30;6.80;;;;;;;18.01;74.49;93821.97;5089506;28;20055;-85
2021/08/14 01:36:23;;;;;;;9.55;6.50;;;;;;;17.97;73.86;93811.25;5089532;28;20052;-85
2021/08/14 01:38:51;;;;;;;14.25;7.43;;;;;;;18.18;73.60;93836.78;5089231;28;20052;-85
2021/08/14 01:41:19;;;;;;;9.80;6.43;;;;;;;18.14;73.47;93833.84;5089403;28;20591;-83
2021/08/14 01:43:57;;;;;;;10.20;6.60;;;;;;;18.06;73.63;93823.84;5089273;28;20051;-81
2021/08/14 01:46:28;;;;;;;9.30;7.03;;;;;;;18.09;73.57;93836.41;5089444;28;20401;-81
2021/08/14 01:48:55;;;;;;;9.02;6.90;;;;;;;18.00;73.81;93835.97;5089152;28;20090;-81
2021/08/14 01:51:22;;;;;;;9.13;6.85;;;;;;;17.96;74.14;93842.69;5089555;28;20094;-82
2021/08/14 01:53:50;;;;;;;8.45;6.80;;;;;;;17.96;74.07;93837.50;5089149;28;20055;-81
2021/08/14 01:56:17;;;;;;;9.77;6.85;;;;;;;17.79;74.09;93819.34;5089353;28;20546;-82
2021/08/14 01:58:44;;;;;;;9.57;6.53;;;;;;;17.77;74.53;93829.97;5089161;28;20047;-82
2021/08/14 02:01:12;;;;;;;10.82;6.65;;;;;;;17.75;74.47;93837.22;5089478;28;20075;-82
2021/08/14 02:03:40;;;;;;;9.60;6.00;;;;;;;17.50;75.14;93823.63;5089118;28;20048;-82
2021/08/14 02:06:07;;;;;;;9.35;6.55;;;;;;;17.59;75.01;93833.63;5089003;28;20044;-84
2021/08/14 02:08:35;;;;;;;11.60;7.22;;;;;;;17.46;75.44;93827.72;5088928;28;20519;-84
2021/08/14 02:11:02;;;;;;;9.45;6.43;;;;;;;17.40;75.48;93826.06;5091246;28;20098;-84
2021/08/14 02:13:30;;;;;;;10.85;7.07;;;;;;;17.43;75.98;93830.00;5093476;28;20070;-84
2021/08/14 02:15:57;;;;;;;11.63;6.90;;;;;;;17.27;76.04;93808.22;5093042;28;20201;-84
2021/08/14 02:18:23;;;;;;;10.02;7.15;;;;;;;17.38;75.95;93833.31;5093330;28;20051;-84
2021/08/14 02:20:52;;;;;;;9.70;7.10;;;;;;;17.24;76.55;93825.06;5092833;28;20052;-84
2021/08/14 02:23:18;;;;;;;11.88;7.45;;;;;;;17.26;76.82;93832.63;5092858;28;20523;-82
2021/08/14 02:25:45;;;;;;;11.90;7.70;;;;;;;17.23;76.48;93826.09;5093156;28;20048;-82
2021/08/14 02:28:12;;;;;;;12.35;7.20;;;;;;;17.31;76.91;93830.88;5092906;28;20052;-82
2021/08/14 02:30:39;;;;;;;8.73;6.95;;;;;;;17.30;76.89;93824.09;5092585;28;20094;-82
2021/08/14 02:33:06;;;;;;;13.13;7.40;;;;;;;17.18;77.35;93813.78;5093059;28;20047;-81
2021/08/14 02:35:33;;;;;;;11.27;7.45;;;;;;;17.15;78.71;93827.25;5092982;28;20052;-81
2021/08/14 02:38:01;;;;;;;10.73;6.95;;;;;;;17.15;78.10;93829.06;5092494;28;20048;-82
2021/08/14 02:40:28;;;;;;;9.63;7.20;;;;;;;17.10;78.72;93827.19;5092734;28;20087;-82
2021/08/14 02:42:54;;;;;;;9.73;7.53;;;;;;;17.07;78.90;93827.63;5092531;28;20620;-82
2021/08/14 02:45:21;;;;;;;10.55;7.30;;;;;;;17.01;79.01;93831.13;5092772;28;20047;-83
2021/08/14 02:47:48;;;;;;;10.15;7.90;;;;;;;16.79;79.09;93796.28;5092818;28;20052;-83
2021/08/14 02:50:15;;;;;;;10.43;7.55;;;;;;;16.88;80.32;93825.22;5092742;28;20087;-83
2021/08/14 02:52:42;;;;;;;14.48;7.85;;;;;;;16.90;79.39;93823.19;5092494;28;20067;-83
2021/08/14 02:55:10;;;;;;;10.57;7.45;;;;;;;16.93;79.28;93832.31;5092594;28;20040;-82
2021/08/14 02:57:37;;;;;;;11.40;7.60;;;;;;;16.88;79.33;93817.44;5092338;28;20094;-82
2021/08/14 03:00:05;;;;;;;10.40;7.05;;;;;;;16.92;80.10;93833.31;5092339;28;20047;-82
2021/08/14 03:02:32;;;;;;;10.98;7.88;;;;;;;16.78;81.55;93833.63;5092342;28;20080;-83
2021/08/14 03:04:59;;;;;;;14.45;7.65;;;;;;;16.67;81.91;93831.88;5091977;28;20098;-82
2021/08/14 03:07:25;;;;;;;14.10;8.80;;;;;;;16.66;82.15;93838.84;5092113;28;20052;-82
2021/08/14 03:09:52;;;;;;;21.60;9.30;;;;;;;16.64;82.13;93837.50;5092307;28;20141;-82
2021/08/14 03:12:21;;;;;;;16.70;7.75;;;;;;;16.70;81.45;93839.97;5092166;28;20052;-82
2021/08/14 03:14:48;;;;;;;14.30;8.65;;;;;;;16.68;81.66;93836.03;5091964;28;20045;-83
2021/08/14 03:17:15;;;;;;;10.70;7.38;;;;;;;16.66;82.38;93845.88;5091945;28;20067;-82
2021/08/14 03:19:42;;;;;;;14.85;8.07;;;;;;;16.52;82.98;93840.94;5092089;28;20452;-83
2021/08/14 03:22:09;;;;;;;14.50;7.85;;;;;;;16.62;82.48;93858.47;5091243;28;20105;-84
2021/08/14 03:24:36;;;;;;;16.05;8.30;;;;;;;16.52;83.32;93860.91;5092067;28;20105;-83
2021/08/14 03:27:03;;;;;;;16.55;8.38;;;;;;;16.45;82.75;93850.66;5091609;28;20048;-83
2021/08/14 03:29:32;;;;;;;18.02;9.05;;;;;;;16.61;82.07;93867.28;5091162;28;20117;-83
2021/08/14 03:31:58;;;;;;;20.77;9.07;;;;;;;16.56;82.63;93862.00;5091502;28;20081;-84
2021/08/14 03:34:25;;;;;;;11.65;8.40;;;;;;;16.64;82.10;93873.81;5091733;28;20524;-83
2021/08/14 03:36:52;;;;;;;15.25;8.68;;;;;;;16.72;81.71;93877.84;5091440;28;20040;-83
2021/08/14 03:39:19;;;;;;;14.90;8.85;;;;;;;16.74;80.95;93868.81;5091615;28;20129;-81
2021/08/14 03:41:46;;;;;;;12.02;8.10;;;;;;;16.80;81.30;93886.06;5091376;28;20048;-82
2021/08/14 03:44:13;;;;;;;14.60;9.27;;;;;;;16.75;82.15;93885.19;5091665;28;20055;-82
2021/08/14 03:46:41;;;;;;;14.88;8.52;;;;;;;16.74;81.50;93884.41;5091191;28;20048;-82
2021/08/14 03:49:08;;;;;;;24.23;9.48;;;;;;;16.82;80.72;93888.44;5098950;28;20043;-82
2021/08/14 03:51:35;;;;;;;13.57;8.57;;;;;;;16.82;80.28;93880.66;5099225;28;20094;-82
2021/08/14 03:54:01;;;;;;;15.60;9.15;;;;;;;16.89;79.39;93893.50;5091469;28;20044;-82
2021/08/14 03:56:28;;;;;;;16.33;9.00;;;;;;;16.85;79.48;93893.13;5102494;28;20048;-84
2021/08/14 03:58:55;;;;;;;13.43;8.70;;;;;;;16.84;79.71;93896.75;5103870;28;20077;-84
2021/08/14 04:01:22;;;;;;;15.23;9.60;;;;;;;16.89;79.38;93893.50;5100107;28;20405;-81
2021/08/14 04:03:50;;;;;;;15.90;9.32;;;;;;;16.85;79.79;93887.94;5091440;28;20052;-82
2021/08/14 04:06:17;;;;;;;15.23;9.25;;;;;;;16.86;79.97;93883.56;5101135;28;20058;-83
2021/08/14 04:08:44;;;;;;;13.23;9.00;;;;;;;16.92;80.19;93898.19;5102550;28;20048;-83
2021/08/14 04:11:10;;;;;;;16.05;9.27;;;;;;;16.91;80.57;93899.22;5102502;28;20055;-83
2021/08/14 04:13:37;;;;;;;19.75;9.40;;;;;;;16.92;80.16;93900.78;5091280;28;20048;-83
2021/08/14 04:16:05;;;;;;;18.48;9.27;;;;;;;16.90;80.69;93892.47;5098802;28;20062;-83
2021/08/14 04:18:32;;;;;;;16.90;9.43;;;;;;;16.90;80.81;93898.41;5099498;28;20051;-82
2021/08/14 04:21:00;;;;;;;17.35;9.20;;;;;;;16.78;80.72;93885.50;5097916;28;20052;-82
2021/08/14 04:23:27;;;;;;;13.98;8.82;;;;;;;16.91;81.18;93905.22;5089923;28;20051;-82
2021/08/14 04:25:53;;;;;;;15.45;9.10;;;;;;;16.89;81.69;93902.03;5093592;28;20405;-82
2021/08/14 04:28:20;;;;;;;16.63;10.02;;;;;;;16.97;80.44;93903.47;5090554;28;20070;-82
2021/08/14 04:30:47;;;;;;;15.68;9.38;;;;;;;17.01;80.49;93909.00;5090643;28;20432;-83
2021/08/14 04:33:14;;;;;;;15.25;9.07;;;;;;;17.06;80.06;93907.31;5089525;28;20066;-83
2021/08/14 04:35:40;;;;;;;18.08;9.02;;;;;;;17.10;80.57;93907.63;5092850;28;20055;-83
2021/08/14 04:38:08;;;;;;;16.55;9.25;;;;;;;17.21;80.19;93898.22;5090293;28;20489;-82
2021/08/14 04:40:35;;;;;;;16.92;8.95;;;;;;;17.25;80.86;93901.91;5090517;28;20056;-82
2021/08/14 04:43:02;;;;;;;18.30;9.20;;;;;;;17.16;80.83;93890.31;5072133;28;20098;-82
2021/08/14 04:45:29;;;;;;;16.27;9.00;;;;;;;17.35;80.58;93901.28;5070302;28;20048;-82
2021/08/14 04:47:56;;;;;;;16.23;8.95;;;;;;;17.21;81.14;93874.84;5070074;28;20055;-82
2021/08/14 04:50:23;;;;;;;18.05;10.00;;;;;;;17.44;80.89;93899.09;5070309;28;20048;-86
2021/08/14 04:52:49;;;;;;;22.80;10.23;;;;;;;17.49;80.89;93897.38;5070036;28;20489;-83
2021/08/14 04:55:17;;;;;;;20.58;10.95;;;;;;;17.55;81.20;93897.47;5070060;28;20059;-83
2021/08/14 04:57:44;;;;;;;27.20;11.32;;;;;;;17.62;80.66;93900.69;5083329;28;20063;-83
2021/08/14 05:00:12;;;;;;;19.05;9.77;;;;;;;17.44;80.62;93860.13;5090202;28;20084;-85
2021/08/14 05:02:39;;;;;;;17.50;9.75;;;;;;;17.65;80.85;93883.84;5089798;28;20051;-85
2021/08/14 05:05:07;;;;;;;21.20;10.30;;;;;;;17.72;80.53;93876.66;5090185;28;20044;-84
2021/08/14 05:07:35;;;;;;;24.10;10.32;;;;;;;17.90;80.08;93896.41;5087939;28;20054;-84
2021/08/14 05:10:02;;;;;;;17.42;9.88;;;;;;;18.01;80.74;93892.16;5087036;28;20043;-84
2021/08/14 05:12:30;;;;;;;19.83;10.65;;;;;;;18.01;80.25;93882.53;5088541;28;20424;-84
2021/08/14 05:14:57;;;;;;;19.52;11.65;;;;;;;18.16;79.62;93886.41;5089935;28;20055;-84
2021/08/14 05:17:23;;;;;;;24.33;11.05;;;;;;;18.25;79.33;93892.78;5089538;28;20058;-84
2021/08/14 05:19:50;;;;;;;23.80;12.70;;;;;;;18.32;80.76;93889.97;5089605;28;20052;-85
2021/08/14 05:22:17;;;;;;;24.88;10.77;;;;;;;18.42;80.28;93894.50;5089433;28;20044;-84
2021/08/14 05:24:44;;;;;;;22.83;11.40;;;;;;;18.38;79.93;93881.22;5089787;28;20048;-84
2021/08/14 05:27:11;;;;;;;18.40;10.77;;;;;;;18.56;80.37;93900.94;5089856;28;20056;-84
2021/08/14 05:29:40;;;;;;;23.02;12.73;;;;;;;18.37;80.60;93860.66;5089589;28;20048;-87
2021/08/14 05:32:07;;;;;;;25.85;11.85;;;;;;;18.65;79.63;93898.69;5089323;28;20378;-86
2021/08/14 05:34:34;;;;;;;24.77;12.80;;;;;;;18.79;79.44;93895.75;5089366;28;20044;-85
2021/08/14 05:37:01;;;;;;;25.48;14.50;;;;;;;18.93;82.05;93893.53;5089087;28;20500;-85
2021/08/14 05:39:28;;;;;;;24.83;13.07;;;;;;;18.89;84.43;93892.44;5089063;28;20052;-84
2021/08/14 05:41:55;;;;;;;36.83;13.15;;;;;;;18.91;81.56;93890.38;5089456;28;20053;-85
2021/08/14 05:44:22;;;;;;;20.00;10.82;;;;;;;18.94;85.52;93895.09;5088781;28;20044;-85
2021/08/14 05:46:50;;;;;;;17.40;10.10;;;;;;;19.05;82.17;93894.22;5089181;28;20062;-85
2021/08/14 05:49:17;;;;;;;17.52;9.85;;;;;;;18.92;82.29;93864.09;5089106;28;20508;-85
2021/08/14 05:51:44;;;;;;;12.57;9.10;;;;;;;19.01;85.01;93902.69;5089539;28;20070;-84
2021/08/14 05:54:11;;;;;;;15.10;9.57;;;;;;;19.04;84.86;93894.44;5089059;28;20493;-84
2021/08/14 05:56:38;;;;;;;11.43;8.50;;;;;;;19.18;85.72;93897.44;5089091;28;20059;-84
2021/08/14 05:59:05;;;;;;;13.75;9.50;;;;;;;19.37;84.13;93890.06;5089184;28;20076;-85
2021/08/14 06:01:32;;;;;;;14.93;10.60;;;;;;;19.26;84.10;93880.59;5089185;28;20408;-84
2021/08/14 06:04:00;;;;;;;13.90;9.10;;;;;;;19.60;82.55;93898.56;5088765;28;20044;-85
2021/08/14 06:06:27;;;;;;;16.42;9.32;;;;;;;19.67;82.33;93875.69;5089145;28;20059;-85
2021/08/14 06:08:54;;;;;;;11.98;8.40;;;;;;;19.84;81.33;93882.56;5089252;28;20036;-84
2021/08/14 06:11:21;;;;;;;14.43;10.60;;;;;;;19.85;81.05;93891.97;5088693;28;20058;-85
2021/08/14 06:13:47;;;;;;;17.00;11.05;;;;;;;20.15;80.02;93890.63;5089004;28;20048;-84
2021/08/14 06:16:15;;;;;;;16.80;9.20;;;;;;;19.71;79.43;93829.84;5089159;28;20430;-84
2021/08/14 06:18:42;;;;;;;26.88;10.57;;;;;;;20.56;77.18;93880.34;5078196;28;20045;-84
2021/08/14 06:21:11;;;;;;;17.60;8.65;;;;;;;20.86;75.85;93893.81;5068773;28;20083;-84
2021/08/14 06:23:38;;;;;;;13.57;8.45;;;;;;;20.76;76.16;93875.47;5068551;28;20851;-84
2021/08/14 06:26:05;;;;;;;16.42;9.10;;;;;;;20.81;76.52;93897.16;5068829;28;20040;-84
2021/08/14 06:28:32;;;;;;;10.93;8.30;;;;;;;20.86;75.31;93883.34;5068930;28;20079;-84
2021/08/14 06:30:59;;;;;;;14.88;9.02;;;;;;;21.54;73.69;93883.44;5068301;28;20063;-85
2021/08/14 06:33:26;;;;;;;17.33;8.05;;;;;;;21.75;72.35;93866.72;5068417;28;20514;-85
2021/08/14 06:35:52;;;;;;;12.02;8.88;;;;;;;22.30;69.11;93878.38;5068490;28;20079;-85
2021/08/14 06:38:21;;;;;;;16.50;8.52;;;;;;;22.85;66.32;93882.13;5068509;28;20048;-85
2021/08/14 06:40:47;;;;;;;20.30;9.10;;;;;;;23.27;64.92;93870.31;5082120;28;20508;-85
2021/08/14 06:43:14;;;;;;;15.15;8.88;;;;;;;23.59;63.45;93890.03;5088994;28;20051;-85
2021/08/14 06:45:42;;;;;;;14.43;8.85;;;;;;;24.08;61.55;93886.75;5088867;28;20404;-84
2021/08/14 06:48:08;;;;;;;15.25;9.02;;;;;;;24.34;59.30;93879.38;5088831;28;20051;-85
2021/08/14 06:50:35;;;;;;;14.13;8.63;;;;;;;24.65;57.94;93889.53;5088648;28;20044;-85
2021/08/14 06:53:02;;;;;;;21.35;9.48;;;;;;;24.78;57.65;93882.03;5088548;28;20055;-85
2021/08/14 06:55:30;;;;;;;20.23;12.30;;;;;;;25.02;56.51;93881.19;5088999;28;20075;-86
2021/08/14 06:57:57;;;;;;;15.38;10.65;;;;;;;25.28;55.09;93865.06;5092360;28;20048;-85
2021/08/14 07:00:24;;;;;;;17.25;9.90;;;;;;;25.19;54.96;93838.66;5092312;28;20044;-86
2021/08/14 07:02:51;;;;;;;11.23;8.30;;;;;;;25.75;54.75;93880.94;5092500;28;20056;-85
2021/08/14 07:05:18;;;;;;;10.70;7.63;;;;;;;25.92;53.57;93848.00;5092218;28;20048;-86
2021/08/14 07:07:45;;;;;;;15.00;7.43;;;;;;;26.22;51.35;93835.34;5092392;28;20048;-86
2021/08/14 07:10:12;;;;;;;12.82;8.52;;;;;;;25.83;52.95;93871.59;5092220;28;20044;-86
2021/08/14 07:12:43;;;;;;;14.43;8.70;;;;;;;25.37;53.68;93871.25;5093528;28;20101;-84
2021/08/14 07:15:10;;;;;;;11.15;7.00;;;;;;;24.78;55.64;93885.44;5099292;28;20132;-85
2021/08/14 07:17:37;;;;;;;13.48;7.28;;;;;;;25.26;54.86;93878.50;5093421;28;20051;-86
2021/08/14 07:20:05;;;;;;;20.35;8.23;;;;;;;25.88;53.85;93861.75;5091958;28;20484;-87
2021/08/14 07:22:32;;;;;;;11.90;7.75;;;;;;;25.09;54.74;93879.03;5092757;28;20052;-86
2021/08/14 07:24:59;;;;;;;16.27;8.10;;;;;;;25.74;54.27;93879.38;5092018;28;20051;-86
2021/08/14 07:27:25;;;;;;;15.95;8.93;;;;;;;26.03;52.72;93873.06;5091894;28;20052;-86
2021/08/14 07:29:54;;;;;;;13.63;8.57;;;;;;;26.37;51.82;93871.94;5091745;28;20524;-87
2021/08/14 07:32:20;;;;;;;16.40;8.13;;;;;;;25.95;51.95;93852.69;5091186;28;20086;-85
2021/08/14 07:34:47;;;;;;;18.63;8.50;;;;;;;25.66;51.42;93822.13;5090472;28;20085;-86
2021/08/14 07:37:14;;;;;;;16.23;8.18;;;;;;;26.42;51.03;93860.53;5090129;28;20052;-86
2021/08/14 07:39:41;;;;;;;14.20;8.57;;;;;;;26.66;50.33;93825.28;5089793;28;20052;-87
2021/08/14 07:42:08;;;;;;;17.42;8.05;;;;;;;27.32;48.93;93842.56;5090046;28;20055;-87
2021/08/14 07:44:34;;;;;;;13.93;7.43;;;;;;;27.72;47.04;93834.75;5090971;28;20048;-87
2021/08/14 07:47:03;;;;;;;13.13;7.25;;;;;;;27.96;46.31;93862.66;5091318;28;20048;-87
2021/08/14 07:49:30;;;;;;;12.23;7.35;;;;;;;26.53;49.54;93853.22;5091211;28;20044;-86
2021/08/14 07:51:56;;;;;;;10.52;7.47;;;;;;;27.56;47.14;93855.47;5090719;28;20516;-87
2021/08/14 07:54:23;;;;;;;15.70;8.45;;;;;;;27.82;46.65;93841.63;5091011;28;20044;-87
2021/08/14 07:56:50;;;;;;;14.95;7.50;;;;;;;28.18;44.55;93832.00;5091180;28;20059;-86
2021/08/14 07:59:17;;;;;;;14.88;7.53;;;;;;;27.70;44.18;93786.00;5091480;28;20051;-87
2021/08/14 08:01:44;;;;;;;12.43;7.57;;;;;;;28.61;43.49;93854.34;5091329;28;20043;-87
2021/08/14 08:04:12;;;;;;;12.55;7.50;;;;;;;28.97;42.25;93854.44;5090995;28;20044;-88
2021/08/14 08:06:39;;;;;;;15.10;7.47;;;;;;;29.13;40.30;93857.38;5090759;28;20052;-88
2021/08/14 08:09:05;;;;;;;13.07;6.75;;;;;;;29.34;39.73;93854.88;5091092;28;20511;-89
2021/08/14 08:11:32;;;;;;;12.45;6.82;;;;;;;29.58;40.12;93848.34;5090915;28;20051;-88
2021/08/14 08:13:59;;;;;;;8.20;7.28;;;;;;;28.79;36.75;93828.72;5091038;28;20055;-87
2021/08/14 08:16:26;;;;;;;10.25;7.47;;;;;;;27.83;36.40;93850.34;5090306;28;20512;-84
2021/08/14 08:18:53;;;;;;;8.52;7.43;;;;;;;26.50;39.14;93851.16;5090186;28;20070;-85
2021/08/14 08:21:21;;;;;;;10.68;8.27;;;;;;;26.76;38.79;93838.22;5088068;28;20044;-85
2021/08/14 08:23:48;;;;;;;12.32;9.57;;;;;;;26.62;37.55;93824.31;5090838;28;20443;-88
2021/08/14 08:26:15;;;;;;;16.98;9.90;;;;;;;26.93;36.16;93802.56;5077839;28;20494;-88
2021/08/14 08:28:42;;;;;;;10.98;9.38;;;;;;;26.12;35.74;93752.09;5078152;28;20044;-88
2021/08/14 08:31:08;;;;;;;13.15;10.40;;;;;;;26.59;36.75;93854.66;5090759;28;20059;-85
2021/08/14 08:33:40;;;;;;;13.15;9.88;;;;;;;26.53;38.00;93843.44;5088916;28;20146;-90
2021/08/14 08:36:07;;;;;;;11.32;9.82;;;;;;;26.39;37.78;93803.94;5083572;28;20066;-86
2021/08/14 08:38:36;;;;;;;15.10;10.48;;;;;;;26.12;37.58;93842.38;5070965;28;20143;-84
2021/08/14 08:41:03;;;;;;;11.93;10.10;;;;;;;26.47;37.74;93841.22;5085276;28;20087;-85
2021/08/14 08:43:30;;;;;;;10.85;9.35;;;;;;;26.37;37.86;93798.22;5090250;28;20052;-89
2021/08/14 08:45:57;;;;;;;12.95;10.82;;;;;;;26.37;37.39;93829.81;5090185;28;20501;-88
2021/08/14 08:48:24;;;;;;;12.30;11.00;;;;;;;26.08;38.26;93841.41;5090458;28;20415;-85
2021/08/14 08:50:56;;;;;;;11.18;9.27;;;;;;;26.51;39.08;93826.38;5090347;28;20048;-86
2021/08/14 08:53:23;;;;;;;10.85;8.55;;;;;;;26.45;39.62;93836.25;5090274;28;20098;-84
2021/08/14 08:55:52;;;;;;;10.68;8.63;;;;;;;26.20;37.52;93838.25;5090380;28;20059;-85
2021/08/14 08:58:18;;;;;;;9.43;7.65;;;;;;;26.80;38.45;93833.94;5090048;28;20134;-87
2021/08/14 09:00:45;;;;;;;10.52;7.20;;;;;;;26.81;39.68;93832.09;5090111;28;20056;-85
2021/08/14 09:03:15;;;;;;;9.65;7.32;;;;;;;26.84;38.57;93818.28;5089799;28;20048;-84
2021/08/14 09:05:50;;;;;;;8.65;7.35;;;;;;;26.58;39.14;93825.97;5089744;28;20625;-85
2021/08/14 09:08:17;;;;;;;9.48;6.95;;;;;;;26.64;39.44;93827.44;5090229;28;20149;-85
2021/08/14 09:10:44;;;;;;;10.32;6.82;;;;;;;26.52;39.65;93831.34;5089801;28;20048;-86
2021/08/14 09:13:14;;;;;;;8.82;7.13;;;;;;;26.18;39.75;93806.19;5090142;28;20421;-84
2021/08/14 09:15:41;;;;;;;10.65;6.97;;;;;;;26.66;39.41;93827.94;5089902;28;20044;-84
2021/08/14 09:18:09;;;;;;;9.80;6.50;;;;;;;26.47;39.26;93778.00;5095951;28;20492;-85
2021/08/14 09:20:50;;;;;;;9.63;6.43;;;;;;;26.84;38.73;93817.53;5109637;28;20420;-85
2021/08/14 09:23:18;;;;;;;7.70;6.25;;;;;;;26.76;37.07;93772.34;5110138;28;20142;-88
2021/08/14 09:25:46;;;;;;;7.10;6.10;;;;;;;26.66;38.06;93794.44;5110134;28;20051;-85
2021/08/14 09:28:16;;;;;;;12.88;5.95;;;;;;;27.19;37.09;93809.91;5109822;28;20496;-84
2021/08/14 09:30:46;;;;;;;7.43;5.90;;;;;;;27.20;36.53;93793.78;5106654;28;20040;-85
2021/08/14 09:33:15;;;;;;;8.38;5.80;;;;;;;27.50;36.15;93803.09;5089462;28;20142;-86
2021/08/14 09:35:42;;;;;;;7.97;5.90;;;;;;;27.65;35.49;93799.31;5096195;28;20044;-85
2021/08/14 09:38:10;;;;;;;9.00;6.40;;;;;;;27.87;34.43;93807.19;5108077;28;20055;-86
2021/08/14 09:40:39;;;;;;;13.50;6.20;;;;;;;27.43;36.56;93751.56;5109499;28;20066;-86
2021/08/14 09:43:06;;;;;;;9.82;6.18;;;;;;;28.01;35.59;93793.13;5109830;28;20111;-85
2021/08/14 09:45:35;;;;;;;6.63;5.40;;;;;;;27.63;35.08;93801.50;5109839;28;20493;-86
2021/08/14 09:48:16;;;;;;;7.10;5.93;;;;;;;27.51;34.21;93726.31;5109329;28;20511;-86
2021/08/14 09:50:43;;;;;;;7.80;6.00;;;;;;;27.28;35.34;93757.22;5109374;28;20048;-85
2021/08/14 09:53:12;;;;;;;8.77;5.93;;;;;;;27.88;34.88;93792.94;5109853;28;20074;-85
2021/08/14 09:55:39;;;;;;;9.95;7.20;;;;;;;27.20;35.66;93727.84;5109849;28;20614;-84
2021/08/14 09:58:09;;;;;;;7.43;5.53;;;;;;;28.00;33.92;93763.28;5109553;28;20047;-84
2021/08/14 10:00:39;;;;;;;8.18;5.20;;;;;;;28.39;32.91;93797.13;5109559;28;20128;-85
2021/08/14 10:03:07;;;;;;;8.18;5.82;;;;;;;27.92;35.05;93755.34;5109648;28;20131;-86
2021/08/14 10:05:35;;;;;;;7.38;5.82;;;;;;;28.16;36.00;93789.28;5114055;28;20397;-84
2021/08/14 10:08:02;;;;;;;9.05;6.22;;;;;;;28.30;34.62;93789.19;5113084;28;20424;-86
2021/08/14 10:10:30;;;;;;;6.93;5.43;;;;;;;28.27;34.06;93781.84;5109889;28;20056;-86
2021/08/14 10:12:58;;;;;;;7.55;5.53;;;;;;;28.13;34.37;93779.31;5109431;28;20051;-86
2021/08/14 10:15:25;;;;;;;8.80;5.15;;;;;;;28.36;34.07;93744.88;5109505;28;20048;-86
2021/08/14 10:17:55;;;;;;;7.57;5.53;;;;;;;28.56;33.20;93775.25;5105203;28;20044;-86
2021/08/14 10:20:22;;;;;;;7.95;5.93;;;;;;;28.73;33.93;93781.63;5088549;28;20055;-86
2021/08/14 10:22:56;;;;;;;8.52;5.72;;;;;;;28.47;33.11;93780.50;5088834;28;20052;-87
2021/08/14 10:25:23;;;;;;;8.85;6.30;;;;;;;28.41;33.87;93729.69;5089190;28;20055;-83
2021/08/14 10:27:56;;;;;;;9.50;6.95;;;;;;;28.57;33.80;93728.44;5088755;28;20060;-86
2021/08/14 10:30:40;;;;;;;11.68;6.90;;;;;;;28.77;33.58;93742.88;5088654;28;20048;-85
2021/08/14 10:33:09;;;;;;;8.50;6.10;;;;;;;28.77;33.95;93774.59;5092646;28;20086;-86
2021/08/14 10:35:39;;;;;;;7.82;6.05;;;;;;;29.11;33.75;93748.47;5092304;28;20044;-86
2021/08/14 10:38:38;;;;;;;6.97;5.07;;;;;;;29.83;32.55;93734.72;5092031;28;20477;-86
2021/08/14 10:41:05;;;;;;;7.72;6.40;;;;;;;29.09;33.57;93772.59;5093215;28;20139;-84
2021/08/14 10:44:00;;;;;;;7.63;6.00;;;;;;;29.35;33.88;93761.19;5087618;28;20088;-86
2021/08/14 10:46:48;;;;;;;10.95;6.10;;;;;;;29.82;32.71;93747.22;5091970;28;20055;-84
2021/08/14 10:49:22;;;;;;;12.52;5.75;;;;;;;30.08;32.18;93756.13;5089068;28;20134;-84
2021/08/14 10:52:10;;;;;;;10.05;5.95;;;;;;;29.40;31.75;93726.63;5092088;28;20501;-84
2021/08/14 10:55:05;;;;;;;7.53;6.03;;;;;;;29.59;32.51;93749.31;5092436;28;20125;-83
2021/08/14 10:57:49;;;;;;;8.20;6.10;;;;;;;29.66;31.50;93752.25;5092629;28;20056;-83
2021/08/14 11:00:27;;;;;;;8.75;6.28;;;;;;;30.16;30.91;93720.88;5092256;28;20045;-84
2021/08/14 11:03:12;;;;;;;8.27;6.05;;;;;;;30.47;30.56;93727.69;5092486;28;20054;-83
2021/08/14 11:05:46;;;;;;;8.20;5.95;;;;;;;30.47;29.61;93738.28;5092084;28;20052;-83
2021/08/14 11:08:27;;;;;;;7.38;5.80;;;;;;;30.53;29.43;93744.16;5092352;28;20044;-82
2021/08/14 11:10:54;;;;;;;7.10;6.22;;;;;;;29.91;31.28;93718.03;5092289;28;20048;-82
2021/08/14 11:14:06;;;;;;;12.18;6.35;;;;;;;30.70;30.06;93737.97;5091975;28;20044;-84
2021/08/14 11:16:57;;;;;;;12.82;5.82;;;;;;;30.54;30.23;93738.53;5092048;28;20067;-84
2021/08/14 11:19:42;;;;;;;6.95;5.90;;;;;;;30.02;30.67;93739.63;5108952;28;20059;-84
2021/08/14 11:22:22;;;;;;;10.00;6.70;;;;;;;30.10;30.74;93732.75;5097575;28;20047;-84
2021/08/14 11:24:49;;;;;;;9.57;7.28;;;;;;;30.20;31.92;93705.09;5112565;28;20061;-83
2021/08/14 11:27:25;;;;;;;8.18;6.43;;;;;;;30.26;31.53;93704.59;5112600;28;20050;-85
2021/08/14 11:29:54;;;;;;;8.23;5.22;;;;;;;30.33;30.28;93692.69;5112292;28;20052;-83
2021/08/14 11:32:22;;;;;;;7.72;5.80;;;;;;;30.06;30.58;93731.81;5094494;28;20044;-86